sensor_id;sensor_type;location;lat;lon;timestamp;temperature;humidity
1351;DHT22;669;50.206;9.998;2022-07-30T00:00:25;15.80;64.20
1351;DHT22;669;50.206;9.998;2022-07-30T00:02:53;15.60;64.80
1351;DHT22;669;50.206;9.998;2022-07-30T00:05:21;15.50;66.10
1351;DHT22;669;50.206;9.998;2022-07-30T00:07:49;15.50;66.40
1351;DHT22;669;50.206;9.998;2022-07-30T00:10:17;15.40;67.70
1351;DHT22;669;50.206;9.998;2022-07-30T00:12:46;15.50;67.30
1351;DHT22;669;50.206;9.998;2022-07-30T00:15:14;15.50;67.30
1351;DHT22;669;50.206;9.998;2022-07-30T00:17:44;15.50;67.40
1351;DHT22;669;50.206;9.998;2022-07-30T00:20:15;15.60;67.40
1351;DHT22;669;50.206;9.998;2022-07-30T00:22:44;15.70;66.30
1351;DHT22;669;50.206;9.998;2022-07-30T00:25:12;15.60;66.40
1351;DHT22;669;50.206;9.998;2022-07-30T00:27:40;15.60;65.50
1351;DHT22;669;50.206;9.998;2022-07-30T00:30:10;15.60;66.70
1351;DHT22;669;50.206;9.998;2022-07-30T00:32:38;15.60;68.00
1351;DHT22;669;50.206;9.998;2022-07-30T00:35:08;15.60;68.10
1351;DHT22;669;50.206;9.998;2022-07-30T00:37:36;15.60;68.40
1351;DHT22;669;50.206;9.998;2022-07-30T00:40:06;15.60;67.00
1351;DHT22;669;50.206;9.998;2022-07-30T00:42:41;15.60;66.40
1351;DHT22;669;50.206;9.998;2022-07-30T00:45:10;15.40;65.80
1351;DHT22;669;50.206;9.998;2022-07-30T00:47:39;15.30;65.70
1351;DHT22;669;50.206;9.998;2022-07-30T00:50:10;15.20;65.60
1351;DHT22;669;50.206;9.998;2022-07-30T00:52:39;15.20;66.10
1351;DHT22;669;50.206;9.998;2022-07-30T00:55:10;15.20;66.80
1351;DHT22;669;50.206;9.998;2022-07-30T00:57:38;15.30;67.70
1351;DHT22;669;50.206;9.998;2022-07-30T01:00:08;15.40;67.60
1351;DHT22;669;50.206;9.998;2022-07-30T01:02:37;15.50;66.40
1351;DHT22;669;50.206;9.998;2022-07-30T01:05:08;15.50;64.70
1351;DHT22;669;50.206;9.998;2022-07-30T01:07:36;15.50;64.40
1351;DHT22;669;50.206;9.998;2022-07-30T01:10:06;15.50;64.70
1351;DHT22;669;50.206;9.998;2022-07-30T01:12:34;15.50;64.40
1351;DHT22;669;50.206;9.998;2022-07-30T01:15:05;15.50;64.20
1351;DHT22;669;50.206;9.998;2022-07-30T01:17:34;15.40;63.00
1351;DHT22;669;50.206;9.998;2022-07-30T01:20:05;15.30;62.90
1351;DHT22;669;50.206;9.998;2022-07-30T01:22:42;15.00;62.40
1351;DHT22;669;50.206;9.998;2022-07-30T01:25:16;14.80;64.10
1351;DHT22;669;50.206;9.998;2022-07-30T01:27:49;14.80;64.00
1351;DHT22;669;50.206;9.998;2022-07-30T01:30:20;14.70;65.00
1351;DHT22;669;50.206;9.998;2022-07-30T01:32:50;14.60;66.60
1351;DHT22;669;50.206;9.998;2022-07-30T01:35:21;14.60;67.70
1351;DHT22;669;50.206;9.998;2022-07-30T01:37:51;14.70;67.20
1351;DHT22;669;50.206;9.998;2022-07-30T01:40:20;14.80;67.00
1351;DHT22;669;50.206;9.998;2022-07-30T01:42:51;14.90;67.00
1351;DHT22;669;50.206;9.998;2022-07-30T01:45:21;15.00;66.60
1351;DHT22;669;50.206;9.998;2022-07-30T01:47:51;15.10;66.40
1351;DHT22;669;50.206;9.998;2022-07-30T01:50:20;15.10;67.60
1351;DHT22;669;50.206;9.998;2022-07-30T01:52:51;15.10;66.40
1351;DHT22;669;50.206;9.998;2022-07-30T01:55:22;15.10;66.40
1351;DHT22;669;50.206;9.998;2022-07-30T01:57:54;15.10;65.90
1351;DHT22;669;50.206;9.998;2022-07-30T02:00:25;15.20;66.20
1351;DHT22;669;50.206;9.998;2022-07-30T02:02:56;15.20;65.40
1351;DHT22;669;50.206;9.998;2022-07-30T02:05:26;15.20;65.80
1351;DHT22;669;50.206;9.998;2022-07-30T02:08:00;15.20;66.10
1351;DHT22;669;50.206;9.998;2022-07-30T02:10:32;15.10;67.40
1351;DHT22;669;50.206;9.998;2022-07-30T02:13:04;15.10;68.80
1351;DHT22;669;50.206;9.998;2022-07-30T02:15:37;15.10;66.10
1351;DHT22;669;50.206;9.998;2022-07-30T02:18:14;15.10;68.30
1351;DHT22;669;50.206;9.998;2022-07-30T02:21:00;15.30;69.10
1351;DHT22;669;50.206;9.998;2022-07-30T02:23:36;15.30;69.00
1351;DHT22;669;50.206;9.998;2022-07-30T02:26:06;15.30;67.90
1351;DHT22;669;50.206;9.998;2022-07-30T02:28:38;15.30;66.50
1351;DHT22;669;50.206;9.998;2022-07-30T02:31:10;15.20;66.20
1351;DHT22;669;50.206;9.998;2022-07-30T02:33:43;15.10;65.90
1351;DHT22;669;50.206;9.998;2022-07-30T02:36:15;15.00;67.50
1351;DHT22;669;50.206;9.998;2022-07-30T02:38:45;15.00;68.70
1351;DHT22;669;50.206;9.998;2022-07-30T02:41:14;15.00;68.50
1351;DHT22;669;50.206;9.998;2022-07-30T02:43:44;15.00;68.20
1351;DHT22;669;50.206;9.998;2022-07-30T02:46:14;15.00;69.00
1351;DHT22;669;50.206;9.998;2022-07-30T02:48:44;15.10;69.10
1351;DHT22;669;50.206;9.998;2022-07-30T02:51:15;15.10;69.00
1351;DHT22;669;50.206;9.998;2022-07-30T02:53:45;15.20;69.00
1351;DHT22;669;50.206;9.998;2022-07-30T02:56:14;15.30;69.30
1351;DHT22;669;50.206;9.998;2022-07-30T02:58:45;15.30;69.10
1351;DHT22;669;50.206;9.998;2022-07-30T03:01:15;15.40;69.10
1351;DHT22;669;50.206;9.998;2022-07-30T03:03:45;15.50;69.40
1351;DHT22;669;50.206;9.998;2022-07-30T03:06:14;15.50;68.80
1351;DHT22;669;50.206;9.998;2022-07-30T03:08:43;15.60;69.30
1351;DHT22;669;50.206;9.998;2022-07-30T03:11:13;15.50;67.50
1351;DHT22;669;50.206;9.998;2022-07-30T03:13:44;15.40;67.60
1351;DHT22;669;50.206;9.998;2022-07-30T03:16:12;15.30;68.20
1351;DHT22;669;50.206;9.998;2022-07-30T03:18:42;15.30;70.00
1351;DHT22;669;50.206;9.998;2022-07-30T03:21:11;15.40;69.80
1351;DHT22;669;50.206;9.998;2022-07-30T03:23:41;15.40;69.70
1351;DHT22;669;50.206;9.998;2022-07-30T03:26:11;15.40;69.50
1351;DHT22;669;50.206;9.998;2022-07-30T03:28:41;15.40;71.70
1351;DHT22;669;50.206;9.998;2022-07-30T03:31:11;15.40;71.70
1351;DHT22;669;50.206;9.998;2022-07-30T03:33:41;15.40;73.20
1351;DHT22;669;50.206;9.998;2022-07-30T03:36:13;15.50;71.50
1351;DHT22;669;50.206;9.998;2022-07-30T03:38:42;15.40;72.80
1351;DHT22;669;50.206;9.998;2022-07-30T03:41:10;15.40;71.80
1351;DHT22;669;50.206;9.998;2022-07-30T03:43:39;15.40;71.30
1351;DHT22;669;50.206;9.998;2022-07-30T03:46:09;15.40;71.70
1351;DHT22;669;50.206;9.998;2022-07-30T03:48:40;15.30;72.00
1351;DHT22;669;50.206;9.998;2022-07-30T03:51:09;15.30;73.80
1351;DHT22;669;50.206;9.998;2022-07-30T03:53:39;15.30;72.90
1351;DHT22;669;50.206;9.998;2022-07-30T03:56:08;15.30;73.20
1351;DHT22;669;50.206;9.998;2022-07-30T03:58:37;15.30;71.50
1351;DHT22;669;50.206;9.998;2022-07-30T04:01:05;15.30;72.40
1351;DHT22;669;50.206;9.998;2022-07-30T04:03:33;15.30;71.70
1351;DHT22;669;50.206;9.998;2022-07-30T04:06:03;15.30;71.10
1351;DHT22;669;50.206;9.998;2022-07-30T04:08:30;15.20;72.60
1351;DHT22;669;50.206;9.998;2022-07-30T04:10:58;15.20;73.80
1351;DHT22;669;50.206;9.998;2022-07-30T04:13:26;15.30;74.40
1351;DHT22;669;50.206;9.998;2022-07-30T04:16:00;15.30;72.40
1351;DHT22;669;50.206;9.998;2022-07-30T04:18:50;15.30;72.30
1351;DHT22;669;50.206;9.998;2022-07-30T04:21:23;15.40;72.80
1351;DHT22;669;50.206;9.998;2022-07-30T04:23:53;15.40;73.20
1351;DHT22;669;50.206;9.998;2022-07-30T04:26:31;15.50;72.10
1351;DHT22;669;50.206;9.998;2022-07-30T04:29:01;15.50;72.40
1351;DHT22;669;50.206;9.998;2022-07-30T04:31:30;15.50;70.80
1351;DHT22;669;50.206;9.998;2022-07-30T04:34:07;15.60;71.10
1351;DHT22;669;50.206;9.998;2022-07-30T04:36:38;15.60;69.80
1351;DHT22;669;50.206;9.998;2022-07-30T04:39:07;15.60;69.90
1351;DHT22;669;50.206;9.998;2022-07-30T04:41:37;15.70;69.80
1351;DHT22;669;50.206;9.998;2022-07-30T04:44:17;15.80;68.20
1351;DHT22;669;50.206;9.998;2022-07-30T04:46:45;15.80;68.50
1351;DHT22;669;50.206;9.998;2022-07-30T04:49:15;15.80;69.00
1351;DHT22;669;50.206;9.998;2022-07-30T04:51:46;15.90;68.30
1351;DHT22;669;50.206;9.998;2022-07-30T04:54:15;15.80;68.70
1351;DHT22;669;50.206;9.998;2022-07-30T04:56:46;15.80;67.50
1351;DHT22;669;50.206;9.998;2022-07-30T04:59:22;15.70;68.80
1351;DHT22;669;50.206;9.998;2022-07-30T05:01:50;15.80;68.10
1351;DHT22;669;50.206;9.998;2022-07-30T05:04:21;15.70;68.50
1351;DHT22;669;50.206;9.998;2022-07-30T05:06:52;15.70;68.40
1351;DHT22;669;50.206;9.998;2022-07-30T05:09:21;15.70;68.70
1351;DHT22;669;50.206;9.998;2022-07-30T05:11:50;15.70;70.20
1351;DHT22;669;50.206;9.998;2022-07-30T05:14:18;15.80;70.20
1351;DHT22;669;50.206;9.998;2022-07-30T05:16:47;15.90;70.00
1351;DHT22;669;50.206;9.998;2022-07-30T05:19:15;16.20;68.90
1351;DHT22;669;50.206;9.998;2022-07-30T05:21:43;16.30;67.30
1351;DHT22;669;50.206;9.998;2022-07-30T05:24:12;16.40;67.50
1351;DHT22;669;50.206;9.998;2022-07-30T05:26:40;16.40;68.10
1351;DHT22;669;50.206;9.998;2022-07-30T05:29:08;16.60;67.20
1351;DHT22;669;50.206;9.998;2022-07-30T05:31:46;16.60;67.10
1351;DHT22;669;50.206;9.998;2022-07-30T05:34:14;16.70;67.50
1351;DHT22;669;50.206;9.998;2022-07-30T05:36:42;16.90;67.80
1351;DHT22;669;50.206;9.998;2022-07-30T05:39:12;16.90;66.10
1351;DHT22;669;50.206;9.998;2022-07-30T05:41:42;17.00;65.80
1351;DHT22;669;50.206;9.998;2022-07-30T05:44:10;17.10;65.80
1351;DHT22;669;50.206;9.998;2022-07-30T05:46:38;17.20;65.10
1351;DHT22;669;50.206;9.998;2022-07-30T05:49:06;17.20;65.70
1351;DHT22;669;50.206;9.998;2022-07-30T05:51:34;17.30;65.80
1351;DHT22;669;50.206;9.998;2022-07-30T05:54:03;17.50;65.20
1351;DHT22;669;50.206;9.998;2022-07-30T05:56:32;17.90;64.50
1351;DHT22;669;50.206;9.998;2022-07-30T05:59:00;18.00;64.20
1351;DHT22;669;50.206;9.998;2022-07-30T06:01:28;18.10;62.90
1351;DHT22;669;50.206;9.998;2022-07-30T06:03:56;18.50;62.40
1351;DHT22;669;50.206;9.998;2022-07-30T06:06:24;18.50;60.50
1351;DHT22;669;50.206;9.998;2022-07-30T06:08:52;18.50;61.30
1351;DHT22;669;50.206;9.998;2022-07-30T06:11:20;19.00;61.60
1351;DHT22;669;50.206;9.998;2022-07-30T06:13:49;19.40;59.60
1351;DHT22;669;50.206;9.998;2022-07-30T06:16:17;19.60;58.80
1351;DHT22;669;50.206;9.998;2022-07-30T06:18:45;19.80;58.00
1351;DHT22;669;50.206;9.998;2022-07-30T06:21:13;20.10;57.50
1351;DHT22;669;50.206;9.998;2022-07-30T06:23:41;20.20;55.50
1351;DHT22;669;50.206;9.998;2022-07-30T06:26:09;20.30;56.10
1351;DHT22;669;50.206;9.998;2022-07-30T06:28:37;20.60;55.90
1351;DHT22;669;50.206;9.998;2022-07-30T06:31:07;20.80;54.70
1351;DHT22;669;50.206;9.998;2022-07-30T06:33:35;20.80;53.30
1351;DHT22;669;50.206;9.998;2022-07-30T06:36:03;20.80;54.20
1351;DHT22;669;50.206;9.998;2022-07-30T06:38:31;20.80;54.20
1351;DHT22;669;50.206;9.998;2022-07-30T06:40:59;20.70;55.00
1351;DHT22;669;50.206;9.998;2022-07-30T06:43:30;20.60;55.00
1351;DHT22;669;50.206;9.998;2022-07-30T06:45:58;20.60;55.40
1351;DHT22;669;50.206;9.998;2022-07-30T06:48:29;20.60;55.60
1351;DHT22;669;50.206;9.998;2022-07-30T06:50:57;20.60;56.10
1351;DHT22;669;50.206;9.998;2022-07-30T06:53:25;20.60;56.10
1351;DHT22;669;50.206;9.998;2022-07-30T06:55:53;20.80;55.10
1351;DHT22;669;50.206;9.998;2022-07-30T06:58:26;21.20;54.30
1351;DHT22;669;50.206;9.998;2022-07-30T07:00:54;21.40;52.00
1351;DHT22;669;50.206;9.998;2022-07-30T07:03:22;21.30;52.60
1351;DHT22;669;50.206;9.998;2022-07-30T07:06:06;21.00;52.80
1351;DHT22;669;50.206;9.998;2022-07-30T07:08:35;20.70;54.90
1351;DHT22;669;50.206;9.998;2022-07-30T07:11:03;20.40;54.80
1351;DHT22;669;50.206;9.998;2022-07-30T07:13:31;20.50;55.00
1351;DHT22;669;50.206;9.998;2022-07-30T07:15:59;20.70;56.10
1351;DHT22;669;50.206;9.998;2022-07-30T07:18:27;20.60;55.60
1351;DHT22;669;50.206;9.998;2022-07-30T07:20:56;20.60;55.80
1351;DHT22;669;50.206;9.998;2022-07-30T07:23:25;20.60;56.00
1351;DHT22;669;50.206;9.998;2022-07-30T07:26:08;20.50;55.60
1351;DHT22;669;50.206;9.998;2022-07-30T07:28:36;20.50;56.30
1351;DHT22;669;50.206;9.998;2022-07-30T07:31:05;20.40;55.70
1351;DHT22;669;50.206;9.998;2022-07-30T07:33:34;20.20;56.70
1351;DHT22;669;50.206;9.998;2022-07-30T07:36:02;20.20;57.20
1351;DHT22;669;50.206;9.998;2022-07-30T07:38:31;20.10;56.70
1351;DHT22;669;50.206;9.998;2022-07-30T07:41:00;20.00;57.20
1351;DHT22;669;50.206;9.998;2022-07-30T07:43:27;20.00;56.80
1351;DHT22;669;50.206;9.998;2022-07-30T07:45:55;19.90;56.70
1351;DHT22;669;50.206;9.998;2022-07-30T07:48:23;19.80;56.40
1351;DHT22;669;50.206;9.998;2022-07-30T07:50:51;19.70;56.10
1351;DHT22;669;50.206;9.998;2022-07-30T07:53:25;19.70;56.50
1351;DHT22;669;50.206;9.998;2022-07-30T07:55:54;19.70;56.80
1351;DHT22;669;50.206;9.998;2022-07-30T07:58:23;19.70;55.80
1351;DHT22;669;50.206;9.998;2022-07-30T08:00:52;19.90;55.80
1351;DHT22;669;50.206;9.998;2022-07-30T08:03:20;19.90;55.30
1351;DHT22;669;50.206;9.998;2022-07-30T08:05:48;20.00;54.50
1351;DHT22;669;50.206;9.998;2022-07-30T08:08:32;20.40;54.90
1351;DHT22;669;50.206;9.998;2022-07-30T08:11:04;20.60;53.90
1351;DHT22;669;50.206;9.998;2022-07-30T08:13:32;20.90;52.50
1351;DHT22;669;50.206;9.998;2022-07-30T08:16:18;21.30;50.90
1351;DHT22;669;50.206;9.998;2022-07-30T08:18:46;22.20;50.40
1351;DHT22;669;50.206;9.998;2022-07-30T08:21:14;23.10;49.20
1351;DHT22;669;50.206;9.998;2022-07-30T08:23:42;23.80;44.90
1351;DHT22;669;50.206;9.998;2022-07-30T08:26:11;24.30;44.00
1351;DHT22;669;50.206;9.998;2022-07-30T08:28:39;24.60;42.10
1351;DHT22;669;50.206;9.998;2022-07-30T08:31:08;25.00;40.30
1351;DHT22;669;50.206;9.998;2022-07-30T08:33:36;25.30;40.30
1351;DHT22;669;50.206;9.998;2022-07-30T08:36:05;25.80;38.40
1351;DHT22;669;50.206;9.998;2022-07-30T08:38:36;26.20;37.50
1351;DHT22;669;50.206;9.998;2022-07-30T08:41:04;26.40;37.40
1351;DHT22;669;50.206;9.998;2022-07-30T08:43:35;26.70;36.70
1351;DHT22;669;50.206;9.998;2022-07-30T08:46:04;27.10;35.10
1351;DHT22;669;50.206;9.998;2022-07-30T08:48:35;27.00;35.80
1351;DHT22;669;50.206;9.998;2022-07-30T08:51:03;27.00;36.00
1351;DHT22;669;50.206;9.998;2022-07-30T08:53:32;27.00;36.40
1351;DHT22;669;50.206;9.998;2022-07-30T08:56:01;27.40;36.30
1351;DHT22;669;50.206;9.998;2022-07-30T08:58:31;27.80;35.40
1351;DHT22;669;50.206;9.998;2022-07-30T09:01:03;28.00;37.20
1351;DHT22;669;50.206;9.998;2022-07-30T09:03:31;28.50;34.00
1351;DHT22;669;50.206;9.998;2022-07-30T09:06:01;28.00;35.00
1351;DHT22;669;50.206;9.998;2022-07-30T09:08:30;27.90;33.70
1351;DHT22;669;50.206;9.998;2022-07-30T09:10:58;27.30;34.60
1351;DHT22;669;50.206;9.998;2022-07-30T09:13:29;26.70;35.80
1351;DHT22;669;50.206;9.998;2022-07-30T09:15:57;26.60;36.60
1351;DHT22;669;50.206;9.998;2022-07-30T09:18:29;26.90;36.30
1351;DHT22;669;50.206;9.998;2022-07-30T09:21:12;27.20;36.20
1351;DHT22;669;50.206;9.998;2022-07-30T09:23:54;27.40;34.10
1351;DHT22;669;50.206;9.998;2022-07-30T09:26:22;27.50;33.80
1351;DHT22;669;50.206;9.998;2022-07-30T09:28:50;27.70;33.60
1351;DHT22;669;50.206;9.998;2022-07-30T09:31:20;27.80;33.60
1351;DHT22;669;50.206;9.998;2022-07-30T09:33:50;27.70;33.30
1351;DHT22;669;50.206;9.998;2022-07-30T09:36:18;27.90;33.50
1351;DHT22;669;50.206;9.998;2022-07-30T09:38:48;28.20;33.10
1351;DHT22;669;50.206;9.998;2022-07-30T09:41:18;28.60;32.50
1351;DHT22;669;50.206;9.998;2022-07-30T09:44:05;28.60;31.20
1351;DHT22;669;50.206;9.998;2022-07-30T09:46:42;28.70;32.20
1351;DHT22;669;50.206;9.998;2022-07-30T09:49:14;28.80;31.50
1351;DHT22;669;50.206;9.998;2022-07-30T09:51:44;28.90;31.50
1351;DHT22;669;50.206;9.998;2022-07-30T09:54:23;29.00;32.10
1351;DHT22;669;50.206;9.998;2022-07-30T09:57:05;28.90;33.20
1351;DHT22;669;50.206;9.998;2022-07-30T09:59:51;29.40;31.60
1351;DHT22;669;50.206;9.998;2022-07-30T10:02:20;29.40;30.60
1351;DHT22;669;50.206;9.998;2022-07-30T10:05:10;28.90;30.00
1351;DHT22;669;50.206;9.998;2022-07-30T10:07:46;28.50;30.90
1351;DHT22;669;50.206;9.998;2022-07-30T10:10:19;28.10;31.10
1351;DHT22;669;50.206;9.998;2022-07-30T10:12:57;27.60;32.10
1351;DHT22;669;50.206;9.998;2022-07-30T10:15:29;28.10;30.90
1351;DHT22;669;50.206;9.998;2022-07-30T10:17:59;28.30;31.80
1351;DHT22;669;50.206;9.998;2022-07-30T10:20:29;29.00;29.70
1351;DHT22;669;50.206;9.998;2022-07-30T10:22:58;29.20;29.90
1351;DHT22;669;50.206;9.998;2022-07-30T10:25:34;29.20;29.40
1351;DHT22;669;50.206;9.998;2022-07-30T10:28:20;29.30;29.50
1351;DHT22;669;50.206;9.998;2022-07-30T10:30:50;29.50;29.40
1351;DHT22;669;50.206;9.998;2022-07-30T10:33:19;29.70;28.40
1351;DHT22;669;50.206;9.998;2022-07-30T10:36:09;29.90;28.90
1351;DHT22;669;50.206;9.998;2022-07-30T10:38:38;30.40;28.60
1351;DHT22;669;50.206;9.998;2022-07-30T10:41:16;30.80;28.10
1351;DHT22;669;50.206;9.998;2022-07-30T10:44:23;30.50;27.80
1351;DHT22;669;50.206;9.998;2022-07-30T10:46:59;31.20;26.60
1351;DHT22;669;50.206;9.998;2022-07-30T10:49:34;31.20;26.70
1351;DHT22;669;50.206;9.998;2022-07-30T10:52:10;31.60;26.00
1351;DHT22;669;50.206;9.998;2022-07-30T10:54:40;30.90;26.50
1351;DHT22;669;50.206;9.998;2022-07-30T10:57:12;30.30;27.30
1351;DHT22;669;50.206;9.998;2022-07-30T11:00:11;30.00;27.90
1351;DHT22;669;50.206;9.998;2022-07-30T11:06:26;29.80;27.50
1351;DHT22;669;50.206;9.998;2022-07-30T11:08:56;29.30;27.60
1351;DHT22;669;50.206;9.998;2022-07-30T11:11:46;28.50;27.10
1351;DHT22;669;50.206;9.998;2022-07-30T11:14:54;27.60;28.10
1351;DHT22;669;50.206;9.998;2022-07-30T11:17:57;26.90;29.60
1351;DHT22;669;50.206;9.998;2022-07-30T11:20:25;26.40;30.90
1351;DHT22;669;50.206;9.998;2022-07-30T11:22:53;26.40;31.00
1351;DHT22;669;50.206;9.998;2022-07-30T11:25:39;26.30;31.30
1351;DHT22;669;50.206;9.998;2022-07-30T11:28:39;26.70;31.70
1351;DHT22;669;50.206;9.998;2022-07-30T11:31:29;26.90;30.70
1351;DHT22;669;50.206;9.998;2022-07-30T11:34:25;27.30;29.40
1351;DHT22;669;50.206;9.998;2022-07-30T11:37:08;27.10;30.00
1351;DHT22;669;50.206;9.998;2022-07-30T11:40:08;26.70;30.20
1351;DHT22;669;50.206;9.998;2022-07-30T11:42:39;26.50;30.90
1351;DHT22;669;50.206;9.998;2022-07-30T11:45:21;26.50;30.80
1351;DHT22;669;50.206;9.998;2022-07-30T11:47:55;26.40;30.60
1351;DHT22;669;50.206;9.998;2022-07-30T11:50:25;26.30;30.60
1351;DHT22;669;50.206;9.998;2022-07-30T11:52:54;26.30;31.00
1351;DHT22;669;50.206;9.998;2022-07-30T11:55:25;26.40;31.40
1351;DHT22;669;50.206;9.998;2022-07-30T11:57:55;26.70;31.40
1351;DHT22;669;50.206;9.998;2022-07-30T12:00:24;27.40;30.70
1351;DHT22;669;50.206;9.998;2022-07-30T12:02:52;28.10;28.60
1351;DHT22;669;50.206;9.998;2022-07-30T12:05:24;28.90;27.90
1351;DHT22;669;50.206;9.998;2022-07-30T12:07:56;29.40;25.90
1351;DHT22;669;50.206;9.998;2022-07-30T12:10:24;29.30;26.20
1351;DHT22;669;50.206;9.998;2022-07-30T12:13:06;28.70;26.70
1351;DHT22;669;50.206;9.998;2022-07-30T12:15:37;28.10;27.40
1351;DHT22;669;50.206;9.998;2022-07-30T12:18:05;27.50;27.90
1351;DHT22;669;50.206;9.998;2022-07-30T12:20:56;26.90;27.40
1351;DHT22;669;50.206;9.998;2022-07-30T12:23:25;26.40;28.90
1351;DHT22;669;50.206;9.998;2022-07-30T12:25:54;26.10;28.10
1351;DHT22;669;50.206;9.998;2022-07-30T12:28:26;26.00;28.60
1351;DHT22;669;50.206;9.998;2022-07-30T12:30:55;25.90;28.90
1351;DHT22;669;50.206;9.998;2022-07-30T12:33:23;25.80;28.20
1351;DHT22;669;50.206;9.998;2022-07-30T12:35:52;25.70;28.90
1351;DHT22;669;50.206;9.998;2022-07-30T12:38:22;25.70;28.90
1351;DHT22;669;50.206;9.998;2022-07-30T12:40:56;25.90;28.90
1351;DHT22;669;50.206;9.998;2022-07-30T12:43:48;26.10;28.80
1351;DHT22;669;50.206;9.998;2022-07-30T12:46:17;26.50;28.80
1351;DHT22;669;50.206;9.998;2022-07-30T12:48:51;27.20;28.00
1351;DHT22;669;50.206;9.998;2022-07-30T12:51:21;27.90;27.30
1351;DHT22;669;50.206;9.998;2022-07-30T12:53:50;28.50;25.90
1351;DHT22;669;50.206;9.998;2022-07-30T12:56:20;28.60;26.60
1351;DHT22;669;50.206;9.998;2022-07-30T12:58:50;29.10;24.80
1351;DHT22;669;50.206;9.998;2022-07-30T13:01:18;29.20;23.80
1351;DHT22;669;50.206;9.998;2022-07-30T13:03:46;29.40;24.60
1351;DHT22;669;50.206;9.998;2022-07-30T13:06:16;29.80;23.80
1351;DHT22;669;50.206;9.998;2022-07-30T13:08:50;30.30;22.20
1351;DHT22;669;50.206;9.998;2022-07-30T13:11:20;30.50;22.40
1351;DHT22;669;50.206;9.998;2022-07-30T13:13:50;30.20;20.70
1351;DHT22;669;50.206;9.998;2022-07-30T13:16:18;29.90;21.00
1351;DHT22;669;50.206;9.998;2022-07-30T13:18:47;29.40;22.30
1351;DHT22;669;50.206;9.998;2022-07-30T13:21:14;28.70;22.90
1351;DHT22;669;50.206;9.998;2022-07-30T13:23:42;28.40;23.50
1351;DHT22;669;50.206;9.998;2022-07-30T13:26:11;28.10;24.40
1351;DHT22;669;50.206;9.998;2022-07-30T13:28:39;27.90;24.90
1351;DHT22;669;50.206;9.998;2022-07-30T13:31:09;27.80;25.30
1351;DHT22;669;50.206;9.998;2022-07-30T13:33:37;27.80;24.50
1351;DHT22;669;50.206;9.998;2022-07-30T13:36:06;28.10;24.30
1351;DHT22;669;50.206;9.998;2022-07-30T13:38:34;28.50;24.10
1351;DHT22;669;50.206;9.998;2022-07-30T13:41:03;29.20;23.10
1351;DHT22;669;50.206;9.998;2022-07-30T13:43:31;29.70;22.90
1351;DHT22;669;50.206;9.998;2022-07-30T13:46:00;30.20;21.90
1351;DHT22;669;50.206;9.998;2022-07-30T13:48:30;30.00;22.80
1351;DHT22;669;50.206;9.998;2022-07-30T13:50:59;29.90;23.00
1351;DHT22;669;50.206;9.998;2022-07-30T13:53:27;30.00;22.40
1351;DHT22;669;50.206;9.998;2022-07-30T13:55:55;30.20;21.80
1351;DHT22;669;50.206;9.998;2022-07-30T13:58:25;30.30;22.50
1351;DHT22;669;50.206;9.998;2022-07-30T14:00:53;30.40;22.20
1351;DHT22;669;50.206;9.998;2022-07-30T14:03:21;30.20;23.20
1351;DHT22;669;50.206;9.998;2022-07-30T14:05:51;29.80;22.70
1351;DHT22;669;50.206;9.998;2022-07-30T14:08:19;29.40;23.80
1351;DHT22;669;50.206;9.998;2022-07-30T14:10:47;29.10;23.60
1351;DHT22;669;50.206;9.998;2022-07-30T14:13:15;29.00;23.90
1351;DHT22;669;50.206;9.998;2022-07-30T14:15:47;29.10;23.80
1351;DHT22;669;50.206;9.998;2022-07-30T14:18:15;28.70;23.80
1351;DHT22;669;50.206;9.998;2022-07-30T14:20:43;28.30;23.90
1351;DHT22;669;50.206;9.998;2022-07-30T14:23:16;27.90;23.90
1351;DHT22;669;50.206;9.998;2022-07-30T14:25:44;27.80;24.00
1351;DHT22;669;50.206;9.998;2022-07-30T14:28:13;27.60;24.50
1351;DHT22;669;50.206;9.998;2022-07-30T14:30:42;27.70;24.50
1351;DHT22;669;50.206;9.998;2022-07-30T14:33:10;27.60;25.30
1351;DHT22;669;50.206;9.998;2022-07-30T14:35:38;27.60;25.50
1351;DHT22;669;50.206;9.998;2022-07-30T14:38:06;27.80;25.60
1351;DHT22;669;50.206;9.998;2022-07-30T14:40:35;27.90;25.90
1351;DHT22;669;50.206;9.998;2022-07-30T14:43:04;27.90;25.00
1351;DHT22;669;50.206;9.998;2022-07-30T14:45:32;27.90;24.50
1351;DHT22;669;50.206;9.998;2022-07-30T14:48:02;27.80;24.60
1351;DHT22;669;50.206;9.998;2022-07-30T14:50:30;27.60;24.90
1351;DHT22;669;50.206;9.998;2022-07-30T14:52:57;27.60;25.30
1351;DHT22;669;50.206;9.998;2022-07-30T14:55:25;27.60;25.10
1351;DHT22;669;50.206;9.998;2022-07-30T14:57:55;27.50;24.30
1351;DHT22;669;50.206;9.998;2022-07-30T15:00:23;27.50;24.50
1351;DHT22;669;50.206;9.998;2022-07-30T15:02:50;27.70;24.50
1351;DHT22;669;50.206;9.998;2022-07-30T15:05:18;28.00;24.20
1351;DHT22;669;50.206;9.998;2022-07-30T15:07:46;27.90;26.30
1351;DHT22;669;50.206;9.998;2022-07-30T15:10:14;27.70;27.00
1351;DHT22;669;50.206;9.998;2022-07-30T15:12:42;27.50;27.10
1351;DHT22;669;50.206;9.998;2022-07-30T15:15:12;27.10;27.70
1351;DHT22;669;50.206;9.998;2022-07-30T15:17:40;26.70;28.20
1351;DHT22;669;50.206;9.998;2022-07-30T15:20:09;26.40;29.20
1351;DHT22;669;50.206;9.998;2022-07-30T15:22:37;26.20;29.40
1351;DHT22;669;50.206;9.998;2022-07-30T15:25:06;26.00;29.50
1351;DHT22;669;50.206;9.998;2022-07-30T15:27:35;25.90;29.60
1351;DHT22;669;50.206;9.998;2022-07-30T15:30:03;25.70;29.70
1351;DHT22;669;50.206;9.998;2022-07-30T15:32:33;25.60;29.90
1351;DHT22;669;50.206;9.998;2022-07-30T15:35:01;25.60;30.10
1351;DHT22;669;50.206;9.998;2022-07-30T15:37:29;25.60;30.50
1351;DHT22;669;50.206;9.998;2022-07-30T15:39:57;25.60;30.30
1351;DHT22;669;50.206;9.998;2022-07-30T15:42:25;25.50;30.00
1351;DHT22;669;50.206;9.998;2022-07-30T15:44:54;25.60;31.70
1351;DHT22;669;50.206;9.998;2022-07-30T15:47:43;25.50;31.80
1351;DHT22;669;50.206;9.998;2022-07-30T15:50:11;25.40;32.70
1351;DHT22;669;50.206;9.998;2022-07-30T15:52:41;25.20;32.60
1351;DHT22;669;50.206;9.998;2022-07-30T15:55:09;25.00;33.00
1351;DHT22;669;50.206;9.998;2022-07-30T15:57:38;24.80;34.00
1351;DHT22;669;50.206;9.998;2022-07-30T16:00:07;24.80;34.50
1351;DHT22;669;50.206;9.998;2022-07-30T16:02:36;24.70;34.50
1351;DHT22;669;50.206;9.998;2022-07-30T16:05:06;24.50;34.80
1351;DHT22;669;50.206;9.998;2022-07-30T16:07:39;24.40;35.30
1351;DHT22;669;50.206;9.998;2022-07-30T16:10:08;24.30;35.20
1351;DHT22;669;50.206;9.998;2022-07-30T16:12:36;24.30;35.60
1351;DHT22;669;50.206;9.998;2022-07-30T16:15:06;24.30;35.60
1351;DHT22;669;50.206;9.998;2022-07-30T16:17:34;24.20;35.60
1351;DHT22;669;50.206;9.998;2022-07-30T16:20:05;24.10;36.00
1351;DHT22;669;50.206;9.998;2022-07-30T16:22:33;24.10;36.10
1351;DHT22;669;50.206;9.998;2022-07-30T16:25:02;24.10;36.20
1351;DHT22;669;50.206;9.998;2022-07-30T16:27:30;23.90;37.60
1351;DHT22;669;50.206;9.998;2022-07-30T16:29:57;23.80;36.50
1351;DHT22;669;50.206;9.998;2022-07-30T16:32:25;23.70;37.90
1351;DHT22;669;50.206;9.998;2022-07-30T16:34:53;23.70;38.20
1351;DHT22;669;50.206;9.998;2022-07-30T16:37:23;23.70;36.60
1351;DHT22;669;50.206;9.998;2022-07-30T16:39:51;23.60;36.40
1351;DHT22;669;50.206;9.998;2022-07-30T16:42:19;23.40;36.90
1351;DHT22;669;50.206;9.998;2022-07-30T16:44:47;23.40;36.90